createdAt,value
2023-01-10T00:02:27.631Z,97736.30
2023-01-10T00:04:56.903Z,97736.30
2023-01-10T00:07:26.302Z,97735.75
2023-01-10T00:09:56.098Z,97738.48
2023-01-10T00:12:42.719Z,97746.12
2023-01-10T00:15:12.717Z,97744.20
2023-01-10T00:17:41.987Z,97745.87
2023-01-10T00:20:12.005Z,97743.42
2023-01-10T00:22:41.266Z,97740.94
2023-01-10T00:25:10.667Z,97741.78
2023-01-10T00:27:40.259Z,97739.88
2023-01-10T00:30:11.437Z,97747.23
2023-01-10T00:32:40.632Z,97759.24
2023-01-10T00:35:09.831Z,97762.52
2023-01-10T00:37:39.213Z,97775.87
2023-01-10T00:40:12.212Z,97789.51
2023-01-10T00:42:59.115Z,97782.93
2023-01-10T00:45:28.616Z,97788.38
2023-01-10T00:47:57.952Z,97793.84
2023-01-10T00:50:27.208Z,97789.98
2023-01-10T00:52:56.560Z,97796.29
2023-01-10T00:55:25.771Z,97806.89
2023-01-10T00:57:55.043Z,97809.08
2023-01-10T01:00:24.573Z,97815.34
2023-01-10T01:02:56.774Z,97815.86
2023-01-10T01:05:26.467Z,97828.67
2023-01-10T01:07:55.708Z,97832.76
2023-01-10T01:10:28.146Z,97837.94
2023-01-10T01:12:58.037Z,97846.36
2023-01-10T01:15:27.732Z,97852.90
2023-01-10T01:17:57.174Z,97861.08
2023-01-10T01:20:26.378Z,97864.89
2023-01-10T01:22:55.549Z,97862.44
2023-01-10T01:25:25.055Z,97870.86
2023-01-10T01:27:54.164Z,97883.98
2023-01-10T01:30:23.379Z,97892.39
2023-01-10T01:32:52.492Z,97893.76
2023-01-10T01:35:21.780Z,97895.66
2023-01-10T01:37:51.486Z,97896.72
2023-01-10T01:40:21.539Z,97897.57
2023-01-10T01:42:52.538Z,97898.34
2023-01-10T01:45:26.546Z,97896.98
2023-01-10T01:47:57.081Z,97893.98
2023-01-10T01:50:39.636Z,97891.77
2023-01-10T01:53:10.292Z,97890.13
2023-01-10T01:55:39.530Z,97890.37
2023-01-10T01:58:10.501Z,97889.86
2023-01-10T02:00:40.759Z,97884.09
2023-01-10T02:03:09.977Z,97876.45
2023-01-10T02:05:39.533Z,97871.01
2023-01-10T02:08:08.935Z,97867.46
2023-01-10T02:10:39.804Z,97864.42
2023-01-10T02:13:09.159Z,97864.15
2023-01-10T02:15:38.576Z,97867.70
2023-01-10T02:18:07.927Z,97873.41
2023-01-10T02:20:38.634Z,97874.78
2023-01-10T02:23:12.270Z,97877.20
2023-01-10T02:25:49.050Z,97870.11
2023-01-10T02:28:34.603Z,97861.65
2023-01-10T02:31:22.461Z,97859.44
2023-01-10T02:33:52.969Z,97866.52
2023-01-10T02:36:37.020Z,97874.70
2023-01-10T02:39:13.584Z,97875.23
2023-01-10T02:41:59.437Z,97870.02
2023-01-10T02:44:32.714Z,97867.02
2023-01-10T02:47:03.349Z,97866.20
2023-01-10T02:49:32.916Z,97857.48
2023-01-10T02:52:02.294Z,97855.53
2023-01-10T02:54:31.992Z,97849.80
2023-01-10T02:57:17.656Z,97847.59
2023-01-10T03:00:00.410Z,97846.23
2023-01-10T03:02:35.910Z,97836.42
2023-01-10T03:05:07.432Z,97837.23
2023-01-10T03:07:40.831Z,97840.73
2023-01-10T03:10:11.439Z,97847.55
2023-01-10T03:12:42.004Z,97854.09
2023-01-10T03:15:11.610Z,97851.91
2023-01-10T03:17:41.044Z,97848.36
2023-01-10T03:20:10.749Z,97851.32
2023-01-10T03:22:40.162Z,97845.33
2023-01-10T03:25:09.828Z,97843.41
2023-01-10T03:27:52.909Z,97831.66
2023-01-10T03:30:35.483Z,97841.20
2023-01-10T03:33:05.751Z,97843.11
2023-01-10T03:35:37.031Z,97842.83
2023-01-10T03:38:07.680Z,97846.88
2023-01-10T03:40:47.179Z,97844.69
2023-01-10T03:43:38.048Z,97839.52
2023-01-10T03:46:08.062Z,97837.37
2023-01-10T03:48:38.027Z,97837.97
2023-01-10T03:51:07.475Z,97845.33
2023-01-10T03:53:36.654Z,97844.55
2023-01-10T03:56:06.868Z,97859.04
2023-01-10T03:58:39.640Z,97863.98
2023-01-10T04:01:08.996Z,97864.84
2023-01-10T04:03:38.392Z,97871.70
2023-01-10T04:06:07.694Z,97885.96
2023-01-10T04:08:37.198Z,97884.36
2023-01-10T04:11:07.341Z,97889.55
2023-01-10T04:13:37.242Z,97882.45
2023-01-10T04:16:07.329Z,97880.55
2023-01-10T04:18:37.338Z,97872.91
2023-01-10T04:21:07.800Z,97862.83
2023-01-10T04:23:37.401Z,97855.47
2023-01-10T04:26:07.515Z,97857.65
2023-01-10T04:28:37.223Z,97855.78
2023-01-10T04:31:07.443Z,97841.56
2023-01-10T04:33:37.390Z,97846.47
2023-01-10T04:36:07.366Z,97844.28
2023-01-10T04:38:37.318Z,97847.02
2023-01-10T04:41:07.318Z,97848.92
2023-01-10T04:43:37.293Z,97851.34
2023-01-10T04:46:10.317Z,97846.43
2023-01-10T04:48:39.643Z,97841.52
2023-01-10T04:51:10.830Z,97847.55
2023-01-10T04:53:39.576Z,97850.52
2023-01-10T04:56:09.361Z,97853.79
2023-01-10T04:58:38.992Z,97849.16
2023-01-10T05:01:11.540Z,97849.97
2023-01-10T05:03:40.931Z,97848.61
2023-01-10T05:06:10.132Z,97849.16
2023-01-10T05:08:39.278Z,97848.34
2023-01-10T05:11:08.631Z,97843.13
2023-01-10T05:13:37.797Z,97839.58
2023-01-10T05:16:07.593Z,97839.03
2023-01-10T05:18:37.368Z,97827.27
2023-01-10T05:21:08.166Z,97835.75
2023-01-10T05:23:38.229Z,97830.81
2023-01-10T05:26:08.311Z,97834.09
2023-01-10T05:28:37.512Z,97834.63
2023-01-10T05:31:10.248Z,97835.72
2023-01-10T05:33:39.749Z,97832.69
2023-01-10T05:36:09.332Z,97836.77
2023-01-10T05:38:38.618Z,97831.05
2023-01-10T05:41:07.942Z,97829.41
2023-01-10T05:43:38.163Z,97831.00
2023-01-10T05:46:07.775Z,97825.02
2023-01-10T05:48:40.546Z,97826.14
2023-01-10T05:51:09.799Z,97827.54
2023-01-10T05:53:39.147Z,97822.64
2023-01-10T05:56:09.032Z,97816.95
2023-01-10T05:58:40.188Z,97823.53
2023-01-10T06:01:09.104Z,97819.21
2023-01-10T06:03:38.318Z,97815.70
2023-01-10T06:06:07.742Z,97813.83
2023-01-10T06:08:38.001Z,97813.87
2023-01-10T06:11:07.690Z,97810.91
2023-01-10T06:13:39.554Z,97801.09
2023-01-10T06:16:08.362Z,97800.63
2023-01-10T06:18:37.639Z,97803.66
2023-01-10T06:21:07.652Z,97798.78
2023-01-10T06:23:37.577Z,97804.55
2023-01-10T06:26:06.958Z,97806.48
2023-01-10T06:28:36.728Z,97808.43
2023-01-10T06:31:06.639Z,97809.08
2023-01-10T06:33:36.694Z,97802.53
2023-01-10T06:36:06.852Z,97803.69
2023-01-10T06:38:36.660Z,97805.91
2023-01-10T06:41:08.266Z,97801.57
2023-01-10T06:43:37.776Z,97793.70
2023-01-10T06:46:09.163Z,97792.36
2023-01-10T06:48:38.586Z,97789.67
2023-01-10T06:51:08.020Z,97782.36
2023-01-10T06:53:37.635Z,97780.75
2023-01-10T06:56:07.479Z,97783.52
2023-01-10T06:58:38.403Z,97777.53
2023-01-10T07:01:09.406Z,97774.29
2023-01-10T07:03:38.705Z,97773.53
2023-01-10T07:06:12.494Z,97772.47
2023-01-10T07:08:41.861Z,97767.03
2023-01-10T07:11:11.142Z,97764.63
2023-01-10T07:13:41.256Z,97759.17
2023-01-10T07:16:11.147Z,97760.87
2023-01-10T07:18:40.783Z,97748.06
2023-01-10T07:21:10.047Z,97760.09
2023-01-10T07:23:39.244Z,97759.30
2023-01-10T07:26:09.242Z,97746.49
2023-01-10T07:28:38.358Z,97737.48
2023-01-10T07:31:07.790Z,97733.09
2023-01-10T07:33:37.182Z,97731.42
2023-01-10T07:36:06.948Z,97735.23
2023-01-10T07:38:36.708Z,97731.11
2023-01-10T07:41:07.275Z,97730.84
2023-01-10T07:43:39.469Z,97736.84
2023-01-10T07:46:09.420Z,97741.73
2023-01-10T07:48:38.791Z,97738.70
2023-01-10T07:51:08.023Z,97728.88
2023-01-10T07:53:38.053Z,97728.60
2023-01-10T07:56:08.062Z,97724.75
2023-01-10T07:58:40.553Z,97740.86
2023-01-10T08:01:09.796Z,97740.28
2023-01-10T08:03:39.988Z,97735.64
2023-01-10T08:06:11.107Z,97741.08
2023-01-10T08:08:40.620Z,97736.98
2023-01-10T08:11:09.954Z,97733.44
2023-01-10T08:13:39.320Z,97732.05
2023-01-10T08:16:29.197Z,97726.02
2023-01-10T08:18:58.513Z,97720.28
2023-01-10T08:21:30.275Z,97720.02
2023-01-10T08:23:59.746Z,97716.41
2023-01-10T08:26:29.274Z,97712.31
2023-01-10T08:28:58.840Z,97714.77
2023-01-10T08:31:28.188Z,97710.41
2023-01-10T08:33:57.680Z,97701.64
2023-01-10T08:36:27.305Z,97704.11
2023-01-10T08:38:57.066Z,97690.67
2023-01-10T08:41:26.627Z,97699.16
2023-01-10T08:43:55.829Z,97692.91
2023-01-10T08:46:24.961Z,97703.03
2023-01-10T08:48:54.297Z,97692.15
2023-01-10T08:51:23.470Z,97677.95
2023-01-10T08:53:52.787Z,97683.71
2023-01-10T08:56:22.142Z,97673.09
2023-01-10T08:58:51.459Z,97666.81
2023-01-10T09:01:20.813Z,97665.47
2023-01-10T09:03:50.268Z,97661.40
2023-01-10T09:06:19.374Z,97657.33
2023-01-10T09:08:48.603Z,97661.17
2023-01-10T09:11:17.995Z,97655.19
2023-01-10T09:13:47.289Z,97664.77
2023-01-10T09:16:16.488Z,97654.42
2023-01-10T09:18:45.790Z,97650.34
2023-01-10T09:21:14.926Z,97651.19
2023-01-10T09:23:44.618Z,97645.75
2023-01-10T09:26:13.947Z,97640.30
2023-01-10T09:28:43.166Z,97643.61
2023-01-10T09:31:12.926Z,97636.28
2023-01-10T09:33:47.165Z,97632.72
2023-01-10T09:36:15.915Z,97623.18
2023-01-10T09:38:45.612Z,97614.45
2023-01-10T09:41:19.446Z,97608.75
2023-01-10T09:44:02.277Z,97605.48
2023-01-10T09:46:49.141Z,97598.67
2023-01-10T09:49:31.701Z,97604.16
2023-01-10T09:52:00.954Z,97602.80
2023-01-10T09:54:31.547Z,97602.81
2023-01-10T09:57:01.373Z,97606.38
2023-01-10T09:59:40.891Z,97612.96
2023-01-10T10:02:20.723Z,97617.59
2023-01-10T10:05:03.786Z,97611.08
2023-01-10T10:07:33.088Z,97611.61
2023-01-10T10:10:02.413Z,97612.17
2023-01-10T10:12:33.334Z,97614.38
2023-01-10T10:15:10.075Z,97608.66
2023-01-10T10:17:40.490Z,97602.10
2023-01-10T10:20:13.866Z,97588.73
2023-01-10T10:22:44.547Z,97597.22
2023-01-10T10:25:15.111Z,97592.83
2023-01-10T10:28:00.883Z,97595.58
2023-01-10T10:30:34.596Z,97588.48
2023-01-10T10:33:14.855Z,97590.39
2023-01-10T10:35:51.379Z,97584.92
2023-01-10T10:38:24.728Z,97579.99
2023-01-10T10:40:53.999Z,97584.08
2023-01-10T10:43:25.341Z,97575.31
2023-01-10T10:46:01.810Z,97567.11
2023-01-10T10:48:31.929Z,97566.29
2023-01-10T10:51:05.845Z,97554.53
2023-01-10T10:53:35.512Z,97552.88
2023-01-10T10:56:06.224Z,97555.59
2023-01-10T10:58:35.700Z,97549.59
2023-01-10T11:01:05.729Z,97542.75
2023-01-10T11:03:36.998Z,97541.09
2023-01-10T11:06:06.767Z,97541.38
2023-01-10T11:08:37.545Z,97547.37
2023-01-10T11:11:08.648Z,97547.63
2023-01-10T11:13:49.021Z,97548.16
2023-01-10T11:16:31.405Z,97538.33
2023-01-10T11:19:20.473Z,97536.41
2023-01-10T11:21:51.265Z,97531.74
2023-01-10T11:24:24.792Z,97529.81
2023-01-10T11:26:54.048Z,97517.81
2023-01-10T11:29:27.567Z,97520.52
2023-01-10T11:31:57.078Z,97524.33
2023-01-10T11:34:27.346Z,97527.04
2023-01-10T11:36:57.258Z,97531.97
2023-01-10T11:39:26.649Z,97524.03
2023-01-10T11:41:56.863Z,97527.86
2023-01-10T11:44:26.657Z,97525.63
2023-01-10T11:46:57.267Z,97515.50
2023-01-10T11:49:40.074Z,97513.03
2023-01-10T11:52:10.745Z,97507.85
2023-01-10T11:54:40.005Z,97509.47
2023-01-10T11:57:09.395Z,97512.99
2023-01-10T11:59:40.196Z,97511.91
2023-01-10T12:02:11.063Z,97501.53
2023-01-10T12:04:43.670Z,97499.86
2023-01-10T12:07:13.366Z,97495.23
2023-01-10T12:09:43.608Z,97499.86
2023-01-10T12:12:17.232Z,97503.11
2023-01-10T12:14:46.871Z,97501.73
2023-01-10T12:17:17.491Z,97498.17
2023-01-10T12:19:46.782Z,97498.45
2023-01-10T12:22:16.406Z,97508.80
2023-01-10T12:24:46.421Z,97506.59
2023-01-10T12:27:16.049Z,97503.85
2023-01-10T12:29:46.980Z,97513.10
2023-01-10T12:32:17.674Z,97515.00
2023-01-10T12:34:47.791Z,97513.36
2023-01-10T12:37:24.576Z,97524.80
2023-01-10T12:39:58.117Z,97522.08
2023-01-10T12:42:51.992Z,97530.79
2023-01-10T12:45:23.398Z,97533.20
2023-01-10T12:47:56.854Z,97531.81
2023-01-10T12:50:28.518Z,97528.27
2023-01-10T12:53:07.828Z,97533.45
2023-01-10T12:55:39.028Z,97531.25
2023-01-10T12:58:08.250Z,97531.50
2023-01-10T13:00:48.156Z,97526.84
2023-01-10T13:03:13.805Z,97533.64
2023-01-10T13:05:43.216Z,97538.00
2023-01-10T13:08:13.160Z,97523.80
2023-01-10T13:10:43.679Z,97531.41
2023-01-10T13:13:14.245Z,97529.78
2023-01-10T13:15:54.165Z,97527.03
2023-01-10T13:18:32.679Z,97521.52
2023-01-10T13:21:09.887Z,97521.50
2023-01-10T13:23:42.745Z,97523.14
2023-01-10T13:26:12.071Z,97499.39
2023-01-10T13:28:45.584Z,97502.91
2023-01-10T13:31:28.202Z,97491.73
2023-01-10T13:33:57.988Z,97479.44
2023-01-10T13:36:28.651Z,97483.77
2023-01-10T13:39:02.200Z,97479.11
2023-01-10T13:42:07.136Z,97476.12
2023-01-10T13:44:38.384Z,97470.09
2023-01-10T13:47:09.229Z,97468.44
2023-01-10T13:49:42.083Z,97473.33
2023-01-10T13:52:30.728Z,97471.42
2023-01-10T13:55:04.702Z,97474.94
2023-01-10T13:57:53.523Z,97483.66
2023-01-10T14:00:41.676Z,97482.27
2023-01-10T14:03:10.780Z,97481.16
2023-01-10T14:05:39.970Z,97466.69
2023-01-10T14:08:10.583Z,97472.38
2023-01-10T14:10:39.694Z,97472.36
2023-01-10T14:13:11.962Z,97470.18
2023-01-10T14:15:41.861Z,97472.09
2023-01-10T14:18:12.459Z,97474.79
2023-01-10T14:20:41.690Z,97475.06
2023-01-10T14:23:12.373Z,97470.10
2023-01-10T14:25:41.525Z,97475.04
2023-01-10T14:28:17.937Z,97472.56
2023-01-10T14:30:47.235Z,97474.47
2023-01-10T14:33:17.695Z,97463.00
2023-01-10T14:35:48.241Z,97460.81
2023-01-10T14:38:33.139Z,97459.97
2023-01-10T14:41:22.623Z,97453.95
2023-01-10T14:43:55.931Z,97450.66
2023-01-10T14:46:26.546Z,97441.39
2023-01-10T14:48:57.203Z,97441.64
2023-01-10T14:51:32.718Z,97443.00
2023-01-10T14:54:02.945Z,97438.34
2023-01-10T14:56:38.791Z,97432.05
2023-01-10T14:59:21.281Z,97424.42
2023-01-10T15:01:50.575Z,97430.66
2023-01-10T15:04:22.923Z,97424.94
2023-01-10T15:06:58.629Z,97420.58
2023-01-10T15:09:27.953Z,97413.44
2023-01-10T15:11:57.371Z,97406.91
2023-01-10T15:14:27.973Z,97405.79
2023-01-10T15:16:58.908Z,97404.97
2023-01-10T15:19:28.117Z,97401.95
2023-01-10T15:21:57.264Z,97398.69
2023-01-10T15:24:27.660Z,97392.94
2023-01-10T15:26:57.167Z,97389.39
2023-01-10T15:29:26.439Z,97398.11
2023-01-10T15:31:56.534Z,97387.73
2023-01-10T15:34:26.861Z,97390.46
2023-01-10T15:36:56.637Z,97388.80
2023-01-10T15:39:26.690Z,97389.62
2023-01-10T15:42:00.394Z,97382.27
2023-01-10T15:44:44.588Z,97381.98
2023-01-10T15:47:31.384Z,97387.43
2023-01-10T15:50:00.731Z,97382.86
2023-01-10T15:52:29.928Z,97380.44
2023-01-10T15:54:59.181Z,97377.73
2023-01-10T15:57:33.165Z,97368.23
2023-01-10T16:00:02.440Z,97369.91
2023-01-10T16:02:32.669Z,97366.66
2023-01-10T16:05:03.422Z,97353.61
2023-01-10T16:07:33.047Z,97346.28
2023-01-10T16:10:08.890Z,97344.69
2023-01-10T16:12:56.057Z,97344.44
2023-01-10T16:15:25.676Z,97343.91
2023-01-10T16:17:54.880Z,97315.89
2023-01-10T16:20:25.523Z,97316.48
2023-01-10T16:22:57.839Z,97311.05
2023-01-10T16:25:33.963Z,97311.88
2023-01-10T16:28:03.215Z,97309.44
2023-01-10T16:30:33.170Z,97314.11
2023-01-10T16:33:06.557Z,97310.85
2023-01-10T16:35:36.399Z,97314.98
2023-01-10T16:38:06.466Z,97306.27
2023-01-10T16:40:37.144Z,97301.39
2023-01-10T16:43:19.175Z,97300.31
2023-01-10T16:45:48.887Z,97265.96
2023-01-10T16:48:18.250Z,97262.72
2023-01-10T16:50:47.725Z,97266.51
2023-01-10T16:53:17.585Z,97256.42
2023-01-10T16:55:48.229Z,97258.63
2023-01-10T16:58:17.951Z,97248.23
2023-01-10T17:00:47.916Z,97235.16
2023-01-10T17:03:23.674Z,97240.91
2023-01-10T17:05:55.625Z,97245.51
2023-01-10T17:08:25.408Z,97255.90
2023-01-10T17:10:56.654Z,97257.53
2023-01-10T17:13:26.566Z,97244.45
2023-01-10T17:15:55.875Z,97233.53
2023-01-10T17:18:26.593Z,97218.24
2023-01-10T17:20:56.572Z,97211.72
2023-01-10T17:23:26.028Z,97206.81
2023-01-10T17:26:01.895Z,97193.45
2023-01-10T17:28:31.184Z,97188.55
2023-01-10T17:31:00.333Z,97184.72
2023-01-10T17:33:29.828Z,97167.55
2023-01-10T17:35:59.246Z,97155.27
2023-01-10T17:38:30.027Z,97147.09
2023-01-10T17:41:01.527Z,97140.02
2023-01-10T17:43:30.952Z,97137.28
2023-01-10T17:46:03.261Z,97132.09
2023-01-10T17:48:32.871Z,97132.90
2023-01-10T17:51:02.653Z,97131.83
2023-01-10T17:53:31.917Z,97135.92
2023-01-10T17:56:02.065Z,97131.53
2023-01-10T17:58:32.164Z,97119.27
2023-01-10T18:01:01.706Z,97115.17
2023-01-10T18:03:34.201Z,97104.00
2023-01-10T18:06:05.565Z,97093.36
2023-01-10T18:08:34.091Z,97087.38
2023-01-10T18:11:03.390Z,97087.65
2023-01-10T18:13:32.821Z,97088.20
2023-01-10T18:16:01.997Z,97069.38
2023-01-10T18:18:31.325Z,97056.29
2023-01-10T18:21:01.976Z,97048.38
2023-01-10T18:23:32.380Z,97047.55
2023-01-10T18:26:02.438Z,97050.83
2023-01-10T18:28:41.008Z,97037.75
2023-01-10T18:31:06.473Z,97035.02
2023-01-10T18:33:36.773Z,97032.00
2023-01-10T18:36:07.258Z,97016.75
2023-01-10T18:38:37.596Z,97027.40
2023-01-10T18:41:07.796Z,97032.56
2023-01-10T18:43:40.435Z,97041.28
2023-01-10T18:46:14.129Z,97046.19
2023-01-10T18:48:43.623Z,97035.28
2023-01-10T18:51:14.206Z,97030.64
2023-01-10T18:53:43.675Z,97014.28
2023-01-10T18:56:13.013Z,97012.11
2023-01-10T18:58:44.890Z,97009.12
2023-01-10T19:01:14.978Z,97007.20
2023-01-10T19:03:44.380Z,97009.12
2023-01-10T19:06:15.365Z,97001.49
2023-01-10T19:08:44.746Z,96989.22
2023-01-10T19:11:15.633Z,96984.03
2023-01-10T19:13:45.396Z,96972.87
2023-01-10T19:16:22.159Z,96968.78
2023-01-10T19:18:55.821Z,96967.41
2023-01-10T19:21:25.216Z,96965.50
2023-01-10T19:23:56.615Z,96955.15
2023-01-10T19:26:25.942Z,96952.42
2023-01-10T19:28:55.131Z,96946.13
2023-01-10T19:31:28.445Z,96946.97
2023-01-10T19:33:59.087Z,96941.22
2023-01-10T19:36:28.271Z,96937.13
2023-01-10T19:38:57.794Z,96933.05
2023-01-10T19:41:27.205Z,96935.77
2023-01-10T19:43:59.778Z,96930.06
2023-01-10T19:46:29.052Z,96935.22
2023-01-10T19:49:01.138Z,96934.70
2023-01-10T19:51:30.433Z,96935.22
2023-01-10T19:53:59.657Z,96933.05
2023-01-10T19:56:28.908Z,96933.86
2023-01-10T19:58:57.993Z,96920.23
2023-01-10T20:01:27.765Z,96924.61
2023-01-10T20:04:00.406Z,96927.04
2023-01-10T20:06:29.846Z,96916.69
2023-01-10T20:08:59.138Z,96912.05
2023-01-10T20:11:28.467Z,96916.43
2023-01-10T20:13:57.639Z,96907.15
2023-01-10T20:16:27.362Z,96908.80
2023-01-10T20:18:56.495Z,96907.44
2023-01-10T20:21:25.677Z,96904.71
2023-01-10T20:23:55.029Z,96899.26
2023-01-10T20:26:26.329Z,96909.88
2023-01-10T20:28:57.135Z,96904.71
2023-01-10T20:31:26.517Z,96909.06
2023-01-10T20:33:56.033Z,96905.52
2023-01-10T20:36:25.776Z,96907.95
2023-01-10T20:38:55.274Z,96915.61
2023-01-10T20:41:25.793Z,96914.25
2023-01-10T20:43:55.007Z,96926.52
2023-01-10T20:46:25.348Z,96929.51
2023-01-10T20:48:54.696Z,96929.25
2023-01-10T20:51:28.184Z,96930.06
2023-01-10T20:53:58.919Z,96943.95
2023-01-10T20:56:28.552Z,96933.05
2023-01-10T20:58:57.606Z,96936.58
2023-01-10T21:01:34.068Z,96940.97
2023-01-10T21:03:57.581Z,96950.51
2023-01-10T21:06:26.936Z,96949.14
2023-01-10T21:08:56.291Z,96947.23
2023-01-10T21:11:25.504Z,96946.13
2023-01-10T21:13:54.907Z,96947.48
2023-01-10T21:16:24.946Z,96955.15
2023-01-10T21:18:56.688Z,96955.95
2023-01-10T21:21:24.931Z,96953.23
2023-01-10T21:23:55.873Z,96946.13
2023-01-10T21:26:25.121Z,96942.04
2023-01-10T21:28:54.193Z,96947.48
2023-01-10T21:31:23.453Z,96943.69
2023-01-10T21:33:53.487Z,96945.31
2023-01-10T21:36:22.742Z,96947.78
2023-01-10T21:38:51.952Z,96940.97
2023-01-10T21:41:29.098Z,96948.04
2023-01-10T21:43:58.199Z,96945.05
2023-01-10T21:46:27.395Z,96946.42
2023-01-10T21:48:56.708Z,96951.87
2023-01-10T21:51:26.191Z,96947.78
2023-01-10T21:53:55.356Z,96947.23
2023-01-10T21:56:25.016Z,96945.87
2023-01-10T21:58:54.148Z,96948.04
2023-01-10T22:01:23.448Z,96947.23
2023-01-10T22:03:53.212Z,96950.51
2023-01-10T22:06:22.587Z,96949.70
2023-01-10T22:08:53.814Z,96948.86
2023-01-10T22:11:23.083Z,96952.94
2023-01-10T22:13:53.643Z,96949.95
2023-01-10T22:16:22.952Z,96946.42
2023-01-10T22:18:52.359Z,96948.59
2023-01-10T22:21:22.358Z,96953.78
2023-01-10T22:23:51.422Z,96951.87
2023-01-10T22:26:20.674Z,96945.61
2023-01-10T22:28:52.719Z,96934.96
2023-01-10T22:31:22.002Z,96931.42
2023-01-10T22:33:51.544Z,96934.70
2023-01-10T22:36:21.183Z,96932.23
2023-01-10T22:38:50.346Z,96938.50
2023-01-10T22:41:25.136Z,96939.31
2023-01-10T22:43:54.719Z,96944.50
2023-01-10T22:46:23.895Z,96943.95
2023-01-10T22:48:53.228Z,96940.41
2023-01-10T22:51:22.578Z,96930.61
2023-01-10T22:53:55.293Z,96932.23
2023-01-10T22:56:25.976Z,96933.59
2023-01-10T22:58:55.794Z,96933.59
2023-01-10T23:01:25.421Z,96932.23
2023-01-10T23:03:54.571Z,96933.05
2023-01-10T23:06:23.801Z,96926.78
2023-01-10T23:08:52.909Z,96922.44
2023-01-10T23:11:22.254Z,96928.41
2023-01-10T23:13:51.286Z,96928.41
2023-01-10T23:16:21.897Z,96932.23
2023-01-10T23:18:51.043Z,96926.78
2023-01-10T23:21:20.421Z,96925.68
2023-01-10T23:23:49.493Z,96929.22
2023-01-10T23:26:18.602Z,96927.86
2023-01-10T23:28:48.658Z,96925.42
2023-01-10T23:31:18.268Z,96936.59
2023-01-10T23:33:47.516Z,96940.41
2023-01-10T23:36:16.908Z,96931.97
2023-01-10T23:38:46.170Z,96936.59
2023-01-10T23:41:15.299Z,96936.59
2023-01-10T23:43:44.371Z,96938.50
2023-01-10T23:46:13.486Z,96930.32
2023-01-10T23:48:43.891Z,96933.05
2023-01-10T23:51:12.941Z,96937.14
2023-01-10T23:53:42.332Z,96946.13
2023-01-10T23:56:15.539Z,96943.40
2023-01-10T23:58:44.625Z,96939.05
